Time;durP1;ratioP1;P1;durP2;ratioP2;P2;SDS_P1;SDS_P2;PMS_P1;PMS_P2;Temp;Humidity;BMP_temperature;BMP_pressure;BME280_temperature;BME280_humidity;BME280_pressure;Samples;Min_cycle;Max_cycle;Signal;HPM_P1;HPM_P2
2023/01/10 00:02:09;;;;;;;;;2.50;0.50;;;;;7.73;100.00;101599.56;5044854;28;58848;-77
2023/01/10 00:04:34;;;;;;;;;2.25;1.00;;;;;7.74;100.00;101599.59;5054575;28;55484;-78
2023/01/10 00:07:00;;;;;;;;;3.75;1.00;;;;;7.73;100.00;101599.56;5051729;28;54845;-79
2023/01/10 00:09:25;;;;;;;;;3.00;1.00;;;;;7.73;100.00;101599.56;5049521;28;49108;-78
2023/01/10 00:14:35;;;;;;;;;2.00;0.75;;;;;7.69;100.00;101595.91;5046483;28;45448;-77
2023/01/10 00:17:01;;;;;;;;;5.00;1.00;;;;;7.66;100.00;101597.53;5055835;28;45690;-78
2023/01/10 00:19:27;;;;;;;;;2.00;0.00;;;;;7.58;100.00;101606.06;5055918;28;45349;-75
2023/01/10 00:21:52;;;;;;;;;6.75;1.75;;;;;7.60;100.00;101608.72;5054733;28;61457;-76
2023/01/10 00:24:17;;;;;;;;;6.50;2.00;;;;;7.57;100.00;101606.00;5053622;28;45401;-76
2023/01/10 00:26:50;;;;;;;;;3.50;0.00;;;;;7.60;100.00;101624.50;5054809;28;45203;-77
2023/01/10 00:29:30;;;;;;;;;2.25;0.50;;;;;7.57;100.00;101625.31;5056095;28;45302;-79
2023/01/10 00:31:56;;;;;;;;;0.75;0.75;;;;;7.56;100.00;101622.59;5054709;28;47140;-76
2023/01/10 00:34:22;;;;;;;;;3.00;0.00;;;;;7.55;100.00;101639.22;5055283;28;45418;-79
2023/01/10 00:36:47;;;;;;;;;3.75;0.25;;;;;7.51;100.00;101635.59;5053485;28;45563;-80
2023/01/10 00:39:14;;;;;;;;;1.00;0.00;;;;;7.47;100.00;101635.44;5044924;28;45476;-76
2023/01/10 00:44:24;;;;;;;;;0.50;0.00;;;;;7.48;100.00;101634.56;5048271;28;45456;-76
2023/01/10 00:46:51;;;;;;;;;0.75;0.00;;;;;7.46;100.00;101634.53;5054619;28;45540;-76
2023/01/10 00:49:16;;;;;;;;;1.00;1.00;;;;;7.47;100.00;101646.81;5057333;28;45570;-78
2023/01/10 00:51:42;;;;;;;;;0.00;0.00;;;;;7.49;100.00;101649.50;5056791;28;45283;-78
2023/01/10 00:54:08;;;;;;;;;0.75;0.75;;;;;7.48;100.00;101651.22;5056404;28;45218;-78
2023/01/10 00:56:34;;;;;;;;;6.00;1.25;;;;;7.47;100.00;101656.44;5058245;28;45249;-76
2023/01/10 00:58:59;;;;;;;;;1.00;1.00;;;;;7.47;100.00;101657.34;5057755;28;45191;-76
2023/01/10 01:01:24;;;;;;;;;2.25;0.25;;;;;7.47;100.00;101657.34;5049035;28;60213;-77
2023/01/10 01:03:50;;;;;;;;;1.00;0.00;;;;;7.48;100.00;101659.13;5050640;28;56937;-78
2023/01/10 01:06:15;;;;;;;;;0.00;0.00;;;;;7.49;100.00;101667.91;5054412;28;45447;-78
2023/01/10 01:08:40;;;;;;;;;0.50;0.50;;;;;7.49;100.00;101666.16;5055994;28;45357;-79
2023/01/10 01:11:06;;;;;;;;;0.50;0.50;;;;;7.50;100.00;101661.78;5036545;28;47735;-76
2023/01/10 01:13:31;;;;;;;;;0.25;0.00;;;;;7.52;100.00;101662.75;5057850;28;45367;-77
2023/01/10 01:15:58;;;;;;;;;5.00;1.00;;;;;7.54;100.00;101661.06;5058413;28;45367;-76
2023/01/10 01:18:23;;;;;;;;;0.50;0.50;;;;;7.54;100.00;101661.97;5056526;28;45534;-78
2023/01/10 01:20:53;;;;;;;;;1.50;1.00;;;;;7.57;100.00;101672.59;5053640;28;45690;-77
2023/01/10 01:23:19;;;;;;;;;8.50;1.75;;;;;7.57;100.00;101669.09;5058551;28;46088;-77
2023/01/10 01:25:44;;;;;;;;;0.50;0.50;;;;;7.58;100.00;101677.03;5056461;28;45487;-78
2023/01/10 01:28:12;;;;;;;;;1.75;1.75;;;;;7.60;100.00;101688.47;5058368;28;45350;-76
2023/01/10 01:30:38;;;;;;;;;1.00;1.00;;;;;7.59;100.00;101686.69;5049663;28;55332;-79
2023/01/10 01:33:03;;;;;;;;;1.00;1.00;;;;;7.64;100.00;101700.00;5057068;28;45591;-76
2023/01/10 01:35:29;;;;;;;;;5.00;1.00;;;;;7.63;100.00;101703.47;5055334;28;56878;-78
2023/01/10 01:37:54;;;;;;;;;0.75;0.75;;;;;7.65;100.00;101720.19;5054027;28;51817;-76
2023/01/10 01:40:21;;;;;;;;;4.00;1.50;;;;;7.64;100.00;101712.25;5055088;28;58500;-78
2023/01/10 01:42:47;;;;;;;;;0.50;0.00;;;;;7.64;100.00;101718.41;5049776;28;45304;-78
2023/01/10 01:45:12;;;;;;;;;3.50;1.00;;;;;7.65;100.00;101722.81;5057532;28;45336;-76
2023/01/10 01:47:45;;;;;;;;;1.75;0.50;;;;;7.67;100.00;101717.59;5045040;28;47207;-75
2023/01/10 01:50:18;;;;;;;;;2.50;0.50;;;;;7.67;100.00;101708.00;5054214;28;45859;-77
2023/01/10 01:52:44;;;;;;;;;2.00;1.00;;;;;7.65;100.00;101693.91;5052751;28;45865;-76
2023/01/10 01:55:09;;;;;;;;;5.00;1.00;;;;;7.65;100.00;101699.16;5052192;28;56068;-76
2023/01/10 01:57:35;;;;;;;;;5.00;0.75;;;;;7.67;100.00;101700.13;5055758;28;45483;-77
2023/01/10 02:00:03;;;;;;;;;1.00;0.00;;;;;7.69;100.00;101702.81;5051373;28;61186;-76
2023/01/10 02:02:31;;;;;;;;;2.50;0.00;;;;;7.70;100.00;101718.63;5046040;28;45775;-77
2023/01/10 02:05:23;;;;;;;;;0.00;0.00;;;;;7.69;100.00;101722.09;5052999;28;45516;-76
2023/01/10 02:07:52;;;;;;;;;1.25;0.25;;;;;7.70;100.00;101725.63;5051610;28;45749;-76
2023/01/10 02:10:22;;;;;;;;;6.50;1.00;;;;;7.70;100.00;101730.88;5055010;28;46703;-78
2023/01/10 02:12:49;;;;;;;;;1.50;0.25;;;;;7.67;100.00;101725.47;5053840;28;45369;-80
2023/01/10 02:15:15;;;;;;;;;0.25;0.25;;;;;7.69;100.00;101740.50;5054375;28;45434;-77
2023/01/10 02:17:41;;;;;;;;;3.00;1.00;;;;;7.68;100.00;101745.69;5046228;28;45626;-76
2023/01/10 02:20:09;;;;;;;;;1.00;1.00;;;;;7.69;100.00;101750.13;5040981;28;62741;-76
2023/01/10 02:22:59;;;;;;;;;2.25;0.25;;;;;7.68;100.00;101748.34;5051352;28;45498;-76
2023/01/10 02:25:41;;;;;;;;;1.00;0.00;;;;;7.64;100.00;101759.56;5051685;28;45577;-77
2023/01/10 02:28:41;;;;;;;;;2.00;0.00;;;;;7.64;100.00;101754.31;5048462;28;45464;-76
2023/01/10 02:31:27;;;;;;;;;2.00;0.00;;;;;7.66;100.00;101756.13;5046555;28;45713;-76
2023/01/10 02:34:12;;;;;;;;;5.50;0.50;;;;;7.63;100.00;101750.78;5051931;28;45405;-77
2023/01/10 02:36:53;;;;;;;;;1.50;0.00;;;;;7.65;100.00;101749.09;5048773;28;45398;-76
2023/01/10 02:39:35;;;;;;;;;0.00;0.00;;;;;7.63;100.00;101745.53;5052823;28;45283;-76
2023/01/10 02:42:11;;;;;;;;;3.50;1.00;;;;;7.61;100.00;101741.94;5049454;28;46584;-77
2023/01/10 02:44:48;;;;;;;;;9.25;1.00;;;;;7.62;100.00;101751.63;5053104;28;45521;-79
2023/01/10 02:47:14;;;;;;;;;0.00;0.00;;;;;7.60;100.00;101756.81;5054963;28;45325;-80
2023/01/10 02:49:47;;;;;;;;;0.50;0.50;;;;;7.61;100.00;101765.56;5054004;28;57254;-77
2023/01/10 02:52:21;;;;;;;;;2.00;1.00;;;;;7.60;100.00;101771.69;5056333;28;47694;-79
2023/01/10 02:54:47;;;;;;;;;0.00;0.00;;;;;7.60;100.00;101782.19;5044607;28;45503;-76
2023/01/10 02:57:37;;;;;;;;;1.50;0.00;;;;;7.60;100.00;101780.44;5051409;28;45199;-76
2023/01/10 03:00:08;;;;;;;;;2.00;0.75;;;;;7.57;100.00;101780.34;5055027;28;46256;-77
2023/01/10 03:02:43;;;;;;;;;1.25;0.00;;;;;7.61;100.00;101790.13;5047119;28;47424;-77
2023/01/10 03:05:26;;;;;;;;;2.00;0.00;;;;;7.63;100.00;101779.69;5056181;28;45523;-76
2023/01/10 03:07:57;;;;;;;;;1.25;0.00;;;;;7.64;100.00;101770.06;5049320;28;45203;-80
2023/01/10 03:10:29;;;;;;;;;0.50;0.50;;;;;7.66;100.00;101764.03;5046255;28;45301;-77
2023/01/10 03:12:59;;;;;;;;;1.25;0.00;;;;;7.68;100.00;101767.63;5055431;28;46241;-76
2023/01/10 03:15:28;;;;;;;;;1.25;0.00;;;;;7.70;100.00;101760.69;5052872;28;45360;-76
2023/01/10 03:17:57;;;;;;;;;0.00;0.00;;;;;7.73;100.00;101760.81;5043017;28;45588;-76
2023/01/10 03:20:23;;;;;;;;;4.25;1.00;;;;;7.74;100.00;101765.22;5048688;28;45691;-77
2023/01/10 03:22:50;;;;;;;;;0.00;0.00;;;;;7.76;100.00;101768.78;5041441;28;46609;-77
2023/01/10 03:25:18;;;;;;;;;0.75;0.75;;;;;7.79;100.00;101768.03;5055412;28;45345;-79
2023/01/10 03:27:50;;;;;;;;;5.25;1.00;;;;;7.79;100.00;101765.41;5049648;28;45223;-79
2023/01/10 03:30:51;;;;;;;;;2.00;0.00;;;;;7.84;100.00;101783.13;5056042;28;47102;-76
2023/01/10 03:33:19;;;;;;;;;1.50;0.25;;;;;7.85;100.00;101774.41;5050181;28;46695;-78
2023/01/10 03:35:57;;;;;;;;;8.00;1.25;;;;;7.86;100.00;101781.44;5044166;28;45359;-75
2023/01/10 03:38:35;;;;;;;;;3.50;1.25;;;;;7.92;100.00;101782.50;5048181;28;45446;-76
2023/01/10 03:41:06;;;;;;;;;1.00;1.00;;;;;7.94;100.00;101783.47;5050144;28;45638;-77
2023/01/10 03:46:42;;;;;;;;;0.50;0.50;;;;;7.97;100.00;101779.22;5063861;28;45322;-79
2023/01/10 03:49:08;;;;;;;;;1.50;0.25;;;;;8.01;100.00;101785.47;5051094;28;46390;-76
2023/01/10 03:51:36;;;;;;;;;1.50;0.00;;;;;8.01;100.00;101780.22;5050398;28;48084;-76
2023/01/10 03:54:02;;;;;;;;;0.00;0.00;;;;;8.04;100.00;101785.56;5053921;28;46477;-77
2023/01/10 03:56:27;;;;;;;;;0.50;0.50;;;;;8.06;100.00;101790.06;5050354;28;45173;-76
2023/01/10 03:58:52;;;;;;;;;3.00;1.00;;;;;8.09;100.00;101797.16;5054377;28;45359;-75
2023/01/10 04:01:18;;;;;;;;;1.50;0.00;;;;;8.11;100.00;101790.25;5050329;28;53755;-78
2023/01/10 04:03:43;;;;;;;;;1.25;0.50;;;;;8.16;100.00;101793.03;5068447;28;64415;-74
2023/01/10 04:06:09;;;;;;;;;1.50;0.75;;;;;8.17;100.00;101790.47;5068788;28;63011;-78
2023/01/10 04:08:34;;;;;;;;;3.25;0.00;;;;;8.19;100.00;101796.66;5050544;28;45460;-76
2023/01/10 04:11:00;;;;;;;;;2.50;2.00;;;;;8.20;100.00;101797.56;5046142;28;45575;-76
2023/01/10 04:13:26;;;;;;;;;2.50;0.75;;;;;8.22;100.00;101799.41;5046206;28;46255;-76
2023/01/10 04:15:51;;;;;;;;;3.25;1.00;;;;;8.24;100.00;101795.09;5053228;28;45524;-77
2023/01/10 04:18:18;;;;;;;;;1.00;0.00;;;;;8.30;100.00;101799.69;5058661;28;55973;-78
2023/01/10 04:20:43;;;;;;;;;4.75;0.00;;;;;8.32;100.00;101808.53;5050218;28;45364;-78
2023/01/10 04:23:08;;;;;;;;;2.25;0.00;;;;;8.32;100.00;101803.28;5059162;28;46390;-76
2023/01/10 04:25:34;;;;;;;;;0.75;0.00;;;;;8.32;100.00;101808.53;5058154;28;60902;-74
2023/01/10 04:27:59;;;;;;;;;2.75;0.75;;;;;8.32;100.00;101805.91;5052734;28;45391;-76
2023/01/10 04:30:24;;;;;;;;;0.25;0.00;;;;;8.28;100.00;101798.75;5071839;28;49831;-79
2023/01/10 04:32:50;;;;;;;;;0.75;0.00;;;;;8.25;100.00;101798.63;5053316;28;56075;-79
2023/01/10 04:35:15;;;;;;;;;2.25;0.00;;;;;8.24;100.00;101808.25;5056481;28;45303;-76
2023/01/10 04:37:42;;;;;;;;;1.00;1.00;;;;;8.24;100.00;101809.97;5042891;28;45536;-76
2023/01/10 04:40:08;;;;;;;;;4.00;0.00;;;;;8.23;100.00;101805.56;5053898;28;45445;-76
2023/01/10 04:42:33;;;;;;;;;4.75;1.00;;;;;8.24;100.00;101808.25;5058022;28;47788;-78
2023/01/10 04:44:58;;;;;;;;;1.50;0.25;;;;;8.26;100.00;101803.97;5054205;28;57061;-78
2023/01/10 04:47:24;;;;;;;;;5.25;1.00;;;;;8.28;100.00;101802.25;5058717;28;45497;-79
2023/01/10 04:49:49;;;;;;;;;1.00;0.00;;;;;8.27;100.00;101808.38;5058087;28;45500;-76
2023/01/10 04:52:15;;;;;;;;;2.00;0.50;;;;;8.27;100.00;101800.47;5057559;28;45676;-79
2023/01/10 04:54:40;;;;;;;;;2.00;0.75;;;;;8.28;100.00;101811.91;5055207;28;45354;-77
2023/01/10 04:57:05;;;;;;;;;0.00;0.00;;;;;8.26;100.00;101814.47;5049200;28;51871;-76
2023/01/10 04:59:31;;;;;;;;;0.50;0.00;;;;;8.28;100.00;101812.78;5051088;28;55857;-76
2023/01/10 05:01:57;;;;;;;;;0.00;0.00;;;;;8.28;100.00;101815.41;5057877;28;46379;-76
2023/01/10 05:04:22;;;;;;;;;0.50;0.00;;;;;8.30;100.00;101812.84;5057259;28;45383;-77
2023/01/10 05:06:48;;;;;;;;;2.00;1.00;;;;;8.33;100.00;101811.22;5054138;28;53236;-79
2023/01/10 05:09:13;;;;;;;;;1.25;0.00;;;;;8.37;100.00;101815.78;5050955;28;45439;-79
2023/01/10 05:11:39;;;;;;;;;2.00;0.00;;;;;8.39;100.00;101819.34;5043702;28;58346;-80
2023/01/10 05:14:04;;;;;;;;;0.75;0.00;;;;;8.39;100.00;101805.31;5046813;28;45461;-76
2023/01/10 05:16:30;;;;;;;;;1.00;0.00;;;;;8.43;100.00;101811.59;5053806;28;45436;-76
2023/01/10 05:18:55;;;;;;;;;1.00;0.00;;;;;8.45;100.00;101804.63;5058680;28;45419;-76
2023/01/10 05:21:20;;;;;;;;;0.00;0.00;;;;;8.49;100.00;101802.16;5057816;28;46467;-76
2023/01/10 05:23:46;;;;;;;;;0.25;0.25;;;;;8.49;100.00;101801.28;5057636;28;45214;-79
2023/01/10 05:26:15;;;;;;;;;1.00;0.00;;;;;8.48;100.00;101799.50;5057180;28;45345;-76
2023/01/10 05:28:41;;;;;;;;;0.25;0.00;;;;;8.46;100.00;101806.41;5052855;28;45376;-75
2023/01/10 05:31:08;;;;;;;;;0.00;0.00;;;;;8.45;100.00;101807.25;5052766;28;45655;-79
2023/01/10 05:33:33;;;;;;;;;3.00;0.00;;;;;8.43;100.00;101807.22;5053186;28;45307;-78
2023/01/10 05:36:06;;;;;;;;;0.00;0.00;;;;;8.42;100.00;101805.44;5047130;28;45478;-76
2023/01/10 05:38:32;;;;;;;;;1.75;0.00;;;;;8.41;100.00;101798.34;5048591;28;45430;-78
2023/01/10 05:40:58;;;;;;;;;2.00;0.00;;;;;8.41;100.00;101806.25;5049551;28;46598;-76
2023/01/10 05:43:24;;;;;;;;;0.00;0.00;;;;;8.42;100.00;101809.81;5053186;28;45542;-76
2023/01/10 05:45:50;;;;;;;;;3.25;1.00;;;;;8.43;100.00;101814.22;5056581;28;45519;-74
2023/01/10 05:48:16;;;;;;;;;4.00;0.25;;;;;8.44;100.00;101808.09;5055939;28;45846;-74
2023/01/10 05:50:41;;;;;;;;;0.75;0.00;;;;;8.43;100.00;101801.94;5050657;28;46278;-74
2023/01/10 05:53:06;;;;;;;;;2.00;0.00;;;;;8.42;100.00;101794.91;5054961;28;52055;-79
2023/01/10 05:55:32;;;;;;;;;2.25;0.00;;;;;8.42;100.00;101794.91;5046545;28;51277;-75
2023/01/10 05:57:58;;;;;;;;;2.00;1.00;;;;;8.43;100.00;101796.69;5054620;28;45639;-74
2023/01/10 06:00:23;;;;;;;;;7.00;1.00;;;;;8.43;100.00;101798.44;5056757;28;47185;-74
2023/01/10 06:02:49;;;;;;;;;4.00;0.00;;;;;8.47;100.00;101787.13;5055303;28;45591;-74
2023/01/10 06:05:14;;;;;;;;;2.00;0.00;;;;;8.50;100.00;101792.53;5046950;28;45477;-78
2023/01/10 06:07:40;;;;;;;;;0.00;0.00;;;;;8.50;100.00;101801.31;5054872;28;45693;-77
2023/01/10 06:10:05;;;;;;;;;2.00;0.75;;;;;8.47;100.00;101798.59;5054121;28;60965;-77
2023/01/10 06:12:31;;;;;;;;;4.75;2.00;;;;;8.49;100.00;101802.16;5056808;28;45425;-75
2023/01/10 06:14:56;;;;;;;;;5.00;0.75;;;;;8.50;100.00;101801.31;5056563;28;57421;-76
2023/01/10 06:17:21;;;;;;;;;2.50;1.00;;;;;8.49;100.00;101798.63;5056683;28;45411;-78
2023/01/10 06:19:47;;;;;;;;;0.33;0.00;;;;;8.46;100.00;101795.88;5056574;28;57420;-77
2023/01/10 06:22:12;;;;;;;;;3.00;1.00;;;;;8.44;100.00;101794.94;5056236;28;45403;-76
2023/01/10 06:24:38;;;;;;;;;1.00;0.75;;;;;8.43;100.00;101786.16;5052225;28;45429;-75
2023/01/10 06:27:03;;;;;;;;;0.50;0.50;;;;;8.44;100.00;101785.31;5052889;28;45382;-76
2023/01/10 06:29:28;;;;;;;;;7.00;1.00;;;;;8.45;100.00;101795.00;5048106;28;46390;-78
2023/01/10 06:31:54;;;;;;;;;2.25;1.00;;;;;8.46;100.00;101795.88;5054969;28;58005;-76
2023/01/10 06:34:19;;;;;;;;;1.00;1.00;;;;;8.47;100.00;101802.94;5056672;28;45480;-76
2023/01/10 06:36:44;;;;;;;;;4.00;1.00;;;;;8.48;100.00;101800.38;5053025;28;53248;-74
2023/01/10 06:39:10;;;;;;;;;1.00;1.00;;;;;8.49;100.00;101807.44;5055796;28;46393;-78
2023/01/10 06:41:35;;;;;;;;;3.00;2.00;;;;;8.51;100.00;101799.56;5052541;28;45298;-78
2023/01/10 06:44:00;;;;;;;;;2.00;1.00;;;;;8.51;100.00;101803.09;5047313;28;52734;-77
2023/01/10 06:46:26;;;;;;;;;4.33;1.00;;;;;8.54;100.00;101797.94;5053314;28;54638;-77
2023/01/10 06:48:51;;;;;;;;;0.00;0.00;;;;;8.55;100.00;101799.75;5050477;28;56352;-75
2023/01/10 06:51:17;;;;;;;;;2.00;0.75;;;;;8.59;100.00;101799.00;5054598;28;58983;-76
2023/01/10 06:53:42;;;;;;;;;1.00;1.00;;;;;8.61;100.00;101797.31;5054321;28;45550;-75
2023/01/10 06:56:08;;;;;;;;;2.00;0.67;;;;;8.64;100.00;101812.34;5051424;28;45571;-76
2023/01/10 06:58:34;;;;;;;;;1.75;1.00;;;;;8.70;100.00;101814.28;5055641;28;46584;-75
2023/01/10 07:00:59;;;;;;;;;5.50;1.00;;;;;8.71;100.00;101816.97;5056496;28;45227;-74
2023/01/10 07:03:25;;;;;;;;;1.00;1.00;;;;;8.74;100.00;101806.53;5055066;28;45346;-75
2023/01/10 07:05:50;;;;;;;;;2.25;1.00;;;;;8.78;100.00;101810.16;5055627;28;47473;-77
2023/01/10 07:08:16;;;;;;;;;1.75;0.75;;;;;8.79;100.00;101809.31;5044922;28;46357;-77
2023/01/10 07:10:42;;;;;;;;;1.00;1.00;;;;;8.83;100.00;101805.94;5053695;28;45601;-74
2023/01/10 07:13:08;;;;;;;;;0.25;0.00;;;;;8.85;100.00;101805.16;5055306;28;46532;-79
2023/01/10 07:15:33;;;;;;;;;1.00;1.00;;;;;8.86;100.00;101791.16;5055642;28;45316;-76
2023/01/10 07:17:58;;;;;;;;;1.00;1.00;;;;;8.89;100.00;101800.88;5050909;28;45611;-78
2023/01/10 07:20:24;;;;;;;;;2.00;0.00;;;;;8.91;100.00;101796.56;5055067;28;56104;-75
2023/01/10 07:22:59;;;;;;;;;3.75;1.00;;;;;8.91;100.00;101800.09;5053024;28;47406;-77
2023/01/10 07:25:26;;;;;;;;;0.25;0.25;;;;;8.92;100.00;101788.72;5047151;28;52479;-75
2023/01/10 07:27:54;;;;;;;;;4.00;1.25;;;;;8.92;100.00;101798.34;5041624;28;47861;-78
2023/01/10 07:30:20;;;;;;;;;6.50;3.25;;;;;8.91;100.00;101791.31;5046679;28;45556;-76
2023/01/10 07:32:52;;;;;;;;;3.75;0.75;;;;;8.90;100.00;101781.63;5049502;28;45496;-76
2023/01/10 07:35:17;;;;;;;;;1.75;0.25;;;;;8.90;100.00;101795.69;5047778;28;45746;-74
2023/01/10 07:37:42;;;;;;;;;5.25;1.50;;;;;8.91;100.00;101788.66;5054046;28;60436;-76
2023/01/10 07:40:08;;;;;;;;;5.50;2.25;;;;;8.89;100.00;101791.25;5044296;28;59550;-75
2023/01/10 07:42:34;;;;;;;;;1.50;1.00;;;;;8.90;100.00;101790.41;5054414;28;45491;-74
2023/01/10 07:44:59;;;;;;;;;6.25;2.75;;;;;8.90;100.00;101782.50;5056104;28;48734;-77
2023/01/10 07:47:24;;;;;;;;;3.75;2.75;;;;;8.91;100.00;101779.03;5050663;28;58912;-80
2023/01/10 07:49:50;;;;;;;;;5.25;2.00;;;;;8.90;100.00;101795.69;5050070;28;45399;-76
2023/01/10 07:52:15;;;;;;;;;1.75;1.00;;;;;8.89;100.00;101788.63;5052354;28;45542;-77
2023/01/10 07:54:40;;;;;;;;;2.00;0.50;;;;;8.93;100.00;101794.88;5054474;28;52371;-75
2023/01/10 07:57:06;;;;;;;;;2.00;0.00;;;;;8.93;100.00;101790.50;5055486;28;60262;-74
2023/01/10 07:59:31;;;;;;;;;1.00;1.00;;;;;8.97;100.00;101783.59;5050745;28;47096;-74
2023/01/10 08:01:56;;;;;;;;;1.00;1.00;;;;;9.00;100.00;101794.25;5037338;28;50656;-75
2023/01/10 08:04:22;;;;;;;;;2.00;1.00;;;;;9.03;100.00;101785.53;5046151;28;45532;-73
2023/01/10 08:06:47;;;;;;;;;3.00;2.00;;;;;9.04;100.00;101796.13;5051532;28;61917;-73
2023/01/10 08:09:12;;;;;;;;;2.75;1.00;;;;;9.06;100.00;101791.81;5054639;28;56215;-74
2023/01/10 08:11:38;;;;;;;;;1.75;0.25;;;;;9.10;100.00;101791.03;5053841;28;45322;-76
2023/01/10 08:14:03;;;;;;;;;0.00;0.00;;;;;9.11;100.00;101781.44;5055856;28;52302;-74
2023/01/10 08:16:28;;;;;;;;;1.75;1.00;;;;;9.13;100.00;101785.88;5055291;28;57383;-72
2023/01/10 08:18:54;;;;;;;;;0.00;0.00;;;;;9.15;100.00;101780.66;5053822;28;45469;-73
2023/01/10 08:21:19;;;;;;;;;1.00;1.00;;;;;9.17;100.00;101787.78;5046315;28;45415;-74
2023/01/10 08:23:44;;;;;;;;;2.25;1.00;;;;;9.23;100.00;101799.38;5043460;28;45435;-80
2023/01/10 08:26:10;;;;;;;;;6.25;2.00;;;;;9.26;100.00;101794.16;5050087;28;45601;-78
2023/01/10 08:28:35;;;;;;;;;3.00;2.00;;;;;9.26;100.00;101776.63;5053143;28;45427;-74
2023/01/10 08:31:08;;;;;;;;;1.33;1.00;;;;;9.31;100.00;101782.94;5050194;28;45408;-75
2023/01/10 08:33:33;;;;;;;;;2.00;2.00;;;;;9.33;100.00;101775.97;5045555;28;45313;-75
2023/01/10 08:35:59;;;;;;;;;1.00;1.00;;;;;9.34;100.00;101774.25;5045478;28;46436;-74
2023/01/10 08:38:24;;;;;;;;;3.25;1.50;;;;;9.35;100.00;101776.91;5050346;28;60260;-74
2023/01/10 08:40:49;;;;;;;;;2.75;2.00;;;;;9.38;100.00;101777.03;5055228;28;45333;-76
2023/01/10 08:43:15;;;;;;;;;6.00;2.75;;;;;9.39;100.00;101770.00;5052672;28;45917;-74
2023/01/10 08:45:40;;;;;;;;;3.25;2.00;;;;;9.41;100.00;101782.38;5054446;28;60769;-74
2023/01/10 08:48:08;;;;;;;;;3.50;1.75;;;;;9.44;100.00;101790.38;5048603;28;56259;-76
2023/01/10 08:50:33;;;;;;;;;2.00;1.00;;;;;9.47;100.00;101786.03;5047783;28;45374;-74
2023/01/10 08:52:59;;;;;;;;;2.75;2.00;;;;;9.49;100.00;101782.63;5048593;28;45504;-76
2023/01/10 08:55:26;;;;;;;;;4.50;4.50;;;;;9.52;100.00;101793.25;5047189;28;45820;-76
2023/01/10 08:57:51;;;;;;;;;7.00;1.75;;;;;9.56;100.00;101795.13;5053107;28;45495;-80
2023/01/10 09:00:17;;;;;;;;;2.67;2.67;;;;;9.55;100.00;101785.44;5056589;28;45294;-74
2023/01/10 09:02:42;;;;;;;;;3.75;2.00;;;;;9.62;100.00;101790.03;5053080;28;45504;-74
2023/01/10 09:05:08;;;;;;;;;4.00;2.00;;;;;9.63;100.00;101791.81;5073904;28;47737;-73
2023/01/10 09:07:33;;;;;;;;;3.75;3.00;;;;;9.63;100.00;101776.00;5048252;28;45473;-72
2023/01/10 09:09:59;;;;;;;;;4.50;3.00;;;;;9.64;100.00;101782.16;5051354;28;45447;-76
2023/01/10 09:15:08;;;;;;;;;7.00;3.25;;;;;9.66;100.00;101788.41;5058493;28;45465;-76
2023/01/10 09:17:34;;;;;;;;;6.00;2.00;;;;;9.66;100.00;101785.75;5058730;28;45453;-75
2023/01/10 09:19:59;;;;;;;;;8.00;4.00;;;;;9.64;100.00;101783.09;5058201;28;53940;-78
2023/01/10 09:22:24;;;;;;;;;3.75;2.50;;;;;9.64;100.00;101780.44;5058194;28;50417;-74
2023/01/10 09:24:50;;;;;;;;;2.67;1.00;;;;;9.65;100.00;101769.06;5058521;28;45637;-73
2023/01/10 09:27:15;;;;;;;;;4.00;2.00;;;;;9.68;100.00;101769.13;5056182;28;58724;-76
2023/01/10 09:29:40;;;;;;;;;9.00;3.00;;;;;9.66;100.00;101762.03;5058222;28;53720;-76
2023/01/10 09:32:06;;;;;;;;;3.50;2.00;;;;;9.68;100.00;101766.47;5058354;28;48798;-74
2023/01/10 09:34:31;;;;;;;;;13.00;11.25;;;;;9.68;100.00;101762.97;5058064;28;46486;-77
2023/01/10 09:36:57;;;;;;;;;6.00;3.00;;;;;9.70;100.00;101774.47;5058441;28;45368;-74
2023/01/10 09:39:22;;;;;;;;;3.00;2.00;;;;;9.68;100.00;101762.97;5057716;28;52558;-78
2023/01/10 09:42:13;;;;;;;;;6.00;2.75;;;;;9.69;100.00;101760.38;5058343;28;45251;-74
2023/01/10 09:44:41;;;;;;;;;7.67;3.67;;;;;9.70;100.00;101761.28;5058355;28;46403;-75
2023/01/10 09:47:24;;;;;;;;;3.33;2.00;;;;;9.71;100.00;101744.59;5048127;28;45464;-75
2023/01/10 09:50:07;;;;;;;;;8.25;2.75;;;;;9.71;100.00;101753.41;5058247;28;45307;-75
2023/01/10 09:52:37;;;;;;;;;3.00;1.25;;;;;9.72;100.00;101746.38;5054961;28;45425;-77
2023/01/10 09:55:17;;;;;;;;;7.00;2.00;;;;;9.74;100.00;101751.69;5056870;28;45398;-74
2023/01/10 09:57:43;;;;;;;;;2.00;1.00;;;;;9.73;100.00;101748.16;5044276;28;45657;-75
2023/01/10 10:00:16;;;;;;;;;5.50;4.00;;;;;9.73;100.00;101745.53;5159552;22;45519;-73
2023/01/10 10:02:44;;;;;;;;;5.33;2.00;;;;;9.74;100.00;101751.69;5046697;28;45380;-74
2023/01/10 10:05:21;;;;;;;;;7.75;3.00;;;;;9.76;100.00;101750.00;5054304;28;46760;-72
2023/01/10 10:07:53;;;;;;;;;8.00;6.00;;;;;9.75;100.00;101754.41;5051793;28;45481;-73
2023/01/10 10:10:23;;;;;;;;;8.00;2.00;;;;;9.77;100.00;101755.31;5048659;28;45509;-73
2023/01/10 10:13:07;;;;;;;;;2.75;1.50;;;;;9.79;100.00;101755.34;5071074;28;45377;-74
2023/01/10 10:15:50;;;;;;;;;4.50;3.00;;;;;9.79;100.00;101755.34;5070937;28;47256;-74
2023/01/10 10:18:38;;;;;;;;;8.00;2.50;;;;;9.80;100.00;101751.88;5075623;28;45469;-74
2023/01/10 10:21:16;;;;;;;;;6.75;2.25;;;;;9.81;100.00;101748.41;5054949;28;45421;-76
2023/01/10 10:23:52;;;;;;;;;9.50;2.00;;;;;9.80;100.00;101751.88;5067645;27;45642;-74
2023/01/10 10:26:27;;;;;;;;;3.00;2.00;;;;;9.77;100.00;101742.13;5057490;28;46947;-74
2023/01/10 10:29:31;;;;;;;;;5.25;3.25;;;;;9.74;100.00;101736.75;5052353;28;45300;-76
2023/01/10 10:32:04;;;;;;;;;4.00;2.00;;;;;9.71;100.00;101721.75;5077041;28;45550;-76
2023/01/10 10:34:36;;;;;;;;;3.50;3.00;;;;;9.72;100.00;101720.00;5067671;28;45378;-78
2023/01/10 10:37:10;;;;;;;;;4.75;4.00;;;;;9.75;100.00;101721.81;5050923;28;46575;-75
2023/01/10 10:39:37;;;;;;;;;3.25;3.00;;;;;9.76;100.00;101710.44;5068947;28;45736;-74
2023/01/10 10:42:03;;;;;;;;;1.75;1.75;;;;;9.76;100.00;101698.16;5067091;28;45468;-74
2023/01/10 10:44:38;;;;;;;;;3.00;1.75;;;;;9.77;100.00;101693.78;5055770;27;45549;-79
2023/01/10 10:47:13;;;;;;;;;3.00;1.67;;;;;9.80;100.00;101678.00;5056184;28;46356;-80
2023/01/10 10:49:59;;;;;;;;;3.25;2.75;;;;;9.83;100.00;101678.13;5071624;28;45980;-76
2023/01/10 10:52:33;;;;;;;;;4.00;3.00;;;;;9.87;100.00;101672.06;5067552;28;45317;-76
2023/01/10 10:54:59;;;;;;;;;6.00;3.75;;;;;9.90;100.00;101665.13;5071375;28;45537;-77
2023/01/10 10:57:27;;;;;;;;;4.50;4.50;;;;;9.91;100.00;101666.03;5049563;28;45761;-77
2023/01/10 10:59:53;;;;;;;;;4.67;3.00;;;;;9.94;100.00;101679.28;5048382;28;45502;-77
2023/01/10 11:02:24;;;;;;;;;3.00;2.67;;;;;9.92;100.00;101666.06;5067929;28;51693;-76
2023/01/10 11:04:51;;;;;;;;;3.75;2.00;;;;;9.92;100.00;101665.19;5063486;27;45346;-77
2023/01/10 11:07:17;;;;;;;;;6.00;3.50;;;;;9.93;100.00;101654.66;5056384;28;47532;-77
2023/01/10 11:09:49;;;;;;;;;5.50;3.00;;;;;9.91;100.00;101651.09;5064610;28;45418;-76
2023/01/10 11:12:17;;;;;;;;;4.33;2.00;;;;;9.94;100.00;101645.00;5052469;28;45355;-78
2023/01/10 11:14:52;;;;;;;;;4.00;2.67;;;;;9.96;100.00;101638.03;5049334;28;45574;-77
2023/01/10 11:17:29;;;;;;;;;2.33;2.33;;;;;9.95;100.00;101631.84;5071491;28;46482;-76
2023/01/10 11:19:58;;;;;;;;;4.00;1.67;;;;;9.96;100.00;101632.75;5066267;28;45596;-74
2023/01/10 11:22:46;;;;;;;;;4.67;1.67;;;;;9.93;100.00;101628.28;5066034;28;45714;-73
2023/01/10 11:25:19;;;;;;;;;2.00;2.00;;;;;9.96;100.00;101622.22;5062172;27;45449;-73
2023/01/10 11:27:50;;;;;;;;;2.75;2.00;;;;;9.98;100.00;101608.19;5046957;28;45658;-76
2023/01/10 11:30:27;;;;;;;;;4.00;1.00;;;;;10.01;100.00;101599.44;5074284;28;45330;-74
2023/01/10 11:32:55;;;;;;;;;1.00;1.00;;;;;10.01;100.00;101591.53;5054504;28;46416;-76
2023/01/10 11:35:25;;;;;;;;;3.67;2.00;;;;;10.05;100.00;101589.88;5070282;28;46548;-75
2023/01/10 11:38:18;;;;;;;;;3.67;1.67;;;;;10.12;100.00;101570.69;5054223;28;45577;-76
2023/01/10 11:41:04;;;;;;;;;1.67;1.33;;;;;10.15;100.00;101566.41;5062713;28;45376;-75
2023/01/10 11:43:35;;;;;;;;;3.00;1.00;;;;;10.20;100.00;101569.16;5074044;28;45481;-74